createdAt,value
2023-05-20T07:08:21.365Z,24.70
2023-05-20T07:13:18.464Z,24.90
2023-05-20T07:15:48.663Z,25.20
2023-05-20T07:18:16.235Z,25.50
2023-05-20T07:20:43.986Z,25.80
2023-05-20T07:23:11.663Z,25.90
2023-05-20T07:25:38.871Z,25.70
2023-05-20T07:28:06.073Z,25.70
2023-05-20T07:30:33.270Z,25.80
2023-05-20T07:33:00.318Z,25.60
2023-05-20T07:35:27.406Z,25.60
2023-05-20T07:37:54.489Z,26.00
2023-05-20T07:40:21.501Z,26.20
2023-05-20T07:42:48.668Z,26.30
2023-05-20T07:45:15.802Z,26.30
2023-05-20T07:47:42.830Z,26.30
2023-05-20T07:50:10.347Z,26.40
2023-05-20T07:52:54.666Z,26.60
2023-05-20T07:55:24.467Z,26.90
2023-05-20T07:57:51.508Z,26.90
2023-05-20T08:00:19.471Z,27.00
2023-05-20T08:02:46.559Z,27.00
2023-05-20T08:05:13.830Z,27.00
2023-05-20T08:07:40.832Z,27.30
2023-05-20T08:10:08.944Z,27.40
2023-05-20T08:12:35.996Z,27.20
2023-05-20T08:15:03.168Z,27.20
2023-05-20T08:17:30.262Z,27.30
2023-05-20T08:19:57.197Z,27.40
2023-05-20T08:22:24.163Z,27.50
2023-05-20T08:24:51.163Z,27.70
2023-05-20T08:27:18.115Z,27.80
2023-05-20T08:29:45.790Z,27.70
2023-05-20T08:32:12.806Z,27.50
2023-05-20T08:34:40.083Z,27.40
2023-05-20T08:37:07.059Z,27.40
2023-05-20T08:39:34.133Z,27.00
2023-05-20T08:42:01.813Z,27.00
2023-05-20T08:44:29.446Z,27.20
2023-05-20T08:46:57.857Z,27.30
